Time;durP1;ratioP1;P1;durP2;ratioP2;P2;SDS_P1;SDS_P2;PMS_P1;PMS_P2;Temp;Humidity;BMP_temperature;BMP_pressure;BME280_temperature;BME280_humidity;BME280_pressure;Samples;Min_cycle;Max_cycle;Signal;HPM_P1;HPM_P2
2021/07/01 00:01:50;;;;;;;10.77;9.67;;;;;;;;;;5014452;28;20226;-62
2021/07/01 00:04:16;;;;;;;11.30;10.10;;;;;;;;;;5014408;28;20533;-62
2021/07/01 00:06:41;;;;;;;11.47;10.33;;;;;;;;;;5014194;28;20590;-62
2021/07/01 00:09:07;;;;;;;11.10;10.10;;;;;;;;;;5014300;28;20713;-62
2021/07/01 00:11:32;;;;;;;12.27;10.97;;;;;;;;;;5014196;28;20237;-63
2021/07/01 00:13:57;;;;;;;11.87;10.60;;;;;;;;;;5014429;28;20272;-63
2021/07/01 00:16:23;;;;;;;11.00;10.00;;;;;;;;;;5017730;28;20296;-62
2021/07/01 00:18:49;;;;;;;12.27;10.80;;;;;;;;;;5034141;28;20230;-63
2021/07/01 00:21:16;;;;;;;9.90;8.90;;;;;;;;;;5033663;28;20233;-62
2021/07/01 00:23:42;;;;;;;13.93;10.90;;;;;;;;;;5033684;28;20527;-63
2021/07/01 00:26:07;;;;;;;12.20;11.10;;;;;;;;;;5034300;28;20999;-64
2021/07/01 00:28:32;;;;;;;12.70;11.40;;;;;;;;;;5033587;28;20589;-62
2021/07/01 00:30:58;;;;;;;12.30;11.10;;;;;;;;;;5033917;28;20229;-62
2021/07/01 00:33:23;;;;;;;12.20;10.93;;;;;;;;;;5033724;28;20232;-61
2021/07/01 00:35:48;;;;;;;12.80;10.20;;;;;;;;;;5014342;28;20689;-62
2021/07/01 00:38:13;;;;;;;11.30;10.20;;;;;;;;;;5014281;28;20273;-63
2021/07/01 00:40:39;;;;;;;11.27;10.17;;;;;;;;;;5013656;28;20285;-63
2021/07/01 00:43:04;;;;;;;11.33;10.17;;;;;;;;;;5014170;28;20302;-62
2021/07/01 00:45:29;;;;;;;10.40;9.40;;;;;;;;;;5013650;28;20311;-61
2021/07/01 00:47:54;;;;;;;10.73;9.63;;;;;;;;;;5014114;28;20268;-63
2021/07/01 00:50:20;;;;;;;10.90;9.80;;;;;;;;;;5014010;28;20242;-62
2021/07/01 00:52:45;;;;;;;10.23;9.17;;;;;;;;;;5012197;28;21551;-62
2021/07/01 00:55:11;;;;;;;8.50;7.63;;;;;;;;;;5013916;28;20305;-62
2021/07/01 00:57:37;;;;;;;8.70;7.90;;;;;;;;;;5013447;28;20237;-63
2021/07/01 01:00:11;;;;;;;9.23;8.30;;;;;;;;;;5014062;28;20500;-63
2021/07/01 01:02:36;;;;;;;10.60;9.23;;;;;;;;;;5013582;28;20223;-63
2021/07/01 01:05:02;;;;;;;12.60;8.90;;;;;;;;;;5014027;28;20766;-63
2021/07/01 01:07:27;;;;;;;12.20;10.40;;;;;;;;;;5013541;28;20227;-61
2021/07/01 01:09:52;;;;;;;8.60;7.80;;;;;;;;;;5014000;28;20376;-63
2021/07/01 01:12:18;;;;;;;9.50;8.67;;;;;;;;;;5014017;28;20223;-63
2021/07/01 01:14:43;;;;;;;10.83;9.80;;;;;;;;;;5013512;28;20718;-62
2021/07/01 01:17:08;;;;;;;9.80;8.90;;;;;;;;;;5014062;28;20218;-62
2021/07/01 01:19:33;;;;;;;9.13;8.23;;;;;;;;;;5014828;28;20365;-62
2021/07/01 01:21:59;;;;;;;11.03;9.60;;;;;;;;;;5033246;28;20229;-62
2021/07/01 01:24:24;;;;;;;10.00;9.10;;;;;;;;;;5033215;28;20226;-61
2021/07/01 01:26:49;;;;;;;12.10;10.30;;;;;;;;;;5032604;28;20304;-62
2021/07/01 01:29:14;;;;;;;9.87;8.93;;;;;;;;;;5037052;28;20217;-63
2021/07/01 01:31:40;;;;;;;10.23;9.30;;;;;;;;;;5036686;28;20673;-62
2021/07/01 01:34:05;;;;;;;11.33;10.20;;;;;;;;;;5031739;28;20222;-63
2021/07/01 01:36:31;;;;;;;11.33;9.73;;;;;;;;;;5017033;28;20233;-62
2021/07/01 01:38:56;;;;;;;11.27;10.13;;;;;;;;;;5016873;28;20368;-63
2021/07/01 01:41:26;;;;;;;12.17;10.53;;;;;;;;;;5017025;28;20608;-63
2021/07/01 01:43:52;;;;;;;11.57;10.30;;;;;;;;;;5016862;28;20619;-62
2021/07/01 01:46:17;;;;;;;11.70;10.40;;;;;;;;;;5016962;28;20476;-63
2021/07/01 01:48:42;;;;;;;10.63;9.60;;;;;;;;;;5016588;28;20298;-62
2021/07/01 01:51:08;;;;;;;13.47;11.00;;;;;;;;;;5016767;28;20257;-62
2021/07/01 01:53:33;;;;;;;12.30;9.57;;;;;;;;;;5012323;28;20647;-62
2021/07/01 01:55:58;;;;;;;11.90;10.10;;;;;;;;;;5035074;28;20224;-63
2021/07/01 01:58:23;;;;;;;9.60;8.70;;;;;;;;;;5036617;28;20723;-62
2021/07/01 02:00:49;;;;;;;9.83;8.83;;;;;;;;;;5036112;28;20229;-62
2021/07/01 02:03:14;;;;;;;11.43;9.00;;;;;;;;;;5035253;28;20320;-62
2021/07/01 02:05:39;;;;;;;10.43;9.30;;;;;;;;;;5035962;28;20250;-62
2021/07/01 02:08:10;;;;;;;12.00;10.80;;;;;;;;;;5036525;28;20635;-62
2021/07/01 02:10:35;;;;;;;10.20;9.20;;;;;;;;;;5035917;28;20610;-61
2021/07/01 02:13:01;;;;;;;10.60;9.50;;;;;;;;;;5036312;28;20539;-62
2021/07/01 02:15:27;;;;;;;10.40;9.03;;;;;;;;;;5016076;28;20233;-63
2021/07/01 02:17:54;;;;;;;9.47;8.57;;;;;;;;;;5019487;28;20291;-63
2021/07/01 02:20:21;;;;;;;10.07;9.03;;;;;;;;;;5028263;28;20317;-63
2021/07/01 02:22:47;;;;;;;10.27;9.27;;;;;;;;;;5034639;28;20530;-62
2021/07/01 02:25:13;;;;;;;9.27;7.87;;;;;;;;;;5023484;28;20856;-63
2021/07/01 02:27:40;;;;;;;9.73;8.37;;;;;;;;;;5028861;28;20477;-63
2021/07/01 02:30:08;;;;;;;9.10;7.83;;;;;;;;;;5028633;28;20563;-63
2021/07/01 02:32:33;;;;;;;8.80;8.00;;;;;;;;;;5011652;28;20469;-62
2021/07/01 02:34:58;;;;;;;8.77;7.97;;;;;;;;;;5022856;28;20476;-63
2021/07/01 02:37:24;;;;;;;9.77;8.00;;;;;;;;;;5029186;28;20628;-63
2021/07/01 02:39:50;;;;;;;9.00;7.47;;;;;;;;;;5027813;28;20369;-63
2021/07/01 02:42:15;;;;;;;9.80;6.97;;;;;;;;;;5022229;28;20225;-63
2021/07/01 02:44:41;;;;;;;8.13;7.37;;;;;;;;;;5023172;28;20313;-63
2021/07/01 02:47:06;;;;;;;11.10;8.27;;;;;;;;;;5029209;28;20301;-63
2021/07/01 02:49:31;;;;;;;8.97;8.07;;;;;;;;;;5026992;28;20316;-62
2021/07/01 02:51:56;;;;;;;9.57;8.60;;;;;;;;;;5021925;28;20225;-65
2021/07/01 02:54:22;;;;;;;7.57;6.87;;;;;;;;;;5035263;28;20229;-63
2021/07/01 02:56:48;;;;;;;8.27;7.47;;;;;;;;;;5021428;28;20241;-62
2021/07/01 02:59:15;;;;;;;6.93;6.37;;;;;;;;;;5023935;28;20566;-64
2021/07/01 03:01:44;;;;;;;6.90;6.20;;;;;;;;;;5027299;28;20466;-64
2021/07/01 03:04:10;;;;;;;6.10;5.47;;;;;;;;;;5027408;28;20963;-64
2021/07/01 03:06:35;;;;;;;6.13;4.00;;;;;;;;;;5021496;28;20499;-63
2021/07/01 03:09:01;;;;;;;10.97;6.00;;;;;;;;;;5023472;28;20561;-63
2021/07/01 03:11:26;;;;;;;6.13;5.53;;;;;;;;;;5028483;28;20300;-63
2021/07/01 03:13:52;;;;;;;17.40;6.43;;;;;;;;;;5027076;28;20237;-63
2021/07/01 03:16:21;;;;;;;17.13;7.40;;;;;;;;;;5004999;28;20219;-62
2021/07/01 03:18:47;;;;;;;8.00;5.80;;;;;;;;;;5025876;28;20477;-63
2021/07/01 03:21:13;;;;;;;15.10;6.43;;;;;;;;;;5030074;28;20534;-62
2021/07/01 03:23:39;;;;;;;5.60;4.40;;;;;;;;;;5027112;28;20469;-62
2021/07/01 03:26:04;;;;;;;7.03;5.10;;;;;;;;;;5021728;28;20952;-61
2021/07/01 03:28:29;;;;;;;5.00;4.50;;;;;;;;;;5026283;28;20226;-61
2021/07/01 03:30:55;;;;;;;8.93;4.87;;;;;;;;;;5029562;28;20320;-61
2021/07/01 03:33:20;;;;;;;12.10;5.23;;;;;;;;;;5026376;28;20229;-61
2021/07/01 03:35:45;;;;;;;12.90;4.20;;;;;;;;;;5027307;28;20794;-60
2021/07/01 03:38:10;;;;;;;8.57;4.40;;;;;;;;;;5023165;28;20234;-61
2021/07/01 03:40:36;;;;;;;7.87;3.90;;;;;;;;;;5020454;28;20230;-62
2021/07/01 03:43:02;;;;;;;6.30;3.90;;;;;;;;;;5026385;28;20222;-61
2021/07/01 03:45:27;;;;;;;6.97;4.17;;;;;;;;;;5027945;28;20670;-61
2021/07/01 03:47:52;;;;;;;5.70;4.73;;;;;;;;;;5022019;28;20468;-61
2021/07/01 03:50:18;;;;;;;4.37;3.90;;;;;;;;;;5020050;28;20292;-60
2021/07/01 03:52:43;;;;;;;4.60;3.97;;;;;;;;;;5026166;28;20301;-60
2021/07/01 03:55:09;;;;;;;4.70;3.70;;;;;;;;;;5015194;28;20310;-61
2021/07/01 03:57:34;;;;;;;4.67;4.20;;;;;;;;;;5021319;28;20571;-61
2021/07/01 04:00:02;;;;;;;4.90;3.70;;;;;;;;;;5020089;28;20497;-62
2021/07/01 04:02:27;;;;;;;4.60;3.83;;;;;;;;;;5021448;28;20241;-61
2021/07/01 04:04:52;;;;;;;2.97;2.77;;;;;;;;;;5020471;28;20474;-61
2021/07/01 04:07:19;;;;;;;7.13;3.90;;;;;;;;;;5030511;28;20391;-60
2021/07/01 04:09:44;;;;;;;5.97;3.13;;;;;;;;;;5026417;28;20284;-61
2021/07/01 04:12:09;;;;;;;3.37;3.07;;;;;;;;;;5020685;28;20547;-60
2021/07/01 04:14:35;;;;;;;3.73;3.03;;;;;;;;;;5021782;28;20245;-62
2021/07/01 04:17:00;;;;;;;3.13;2.87;;;;;;;;;;5008248;28;20242;-61
2021/07/01 04:19:25;;;;;;;6.33;3.50;;;;;;;;;;5025513;28;20238;-61
2021/07/01 04:21:50;;;;;;;4.03;3.30;;;;;;;;;;5027455;28;20320;-61
2021/07/01 04:24:16;;;;;;;4.13;3.00;;;;;;;;;;5022857;28;20606;-61
2021/07/01 04:26:41;;;;;;;4.70;2.63;;;;;;;;;;5021010;28;20309;-61
2021/07/01 04:29:06;;;;;;;8.03;3.43;;;;;;;;;;5027667;28;20292;-61
2021/07/01 04:31:33;;;;;;;3.20;2.80;;;;;;;;;;5027650;28;20321;-61
2021/07/01 04:33:58;;;;;;;3.17;2.43;;;;;;;;;;5021476;28;20626;-61
2021/07/01 04:36:23;;;;;;;2.93;2.40;;;;;;;;;;5035459;28;20483;-61
2021/07/01 04:38:49;;;;;;;2.77;2.53;;;;;;;;;;5021258;28;20237;-61
2021/07/01 04:41:19;;;;;;;3.70;2.20;;;;;;;;;;5021123;28;20325;-61
2021/07/01 04:43:44;;;;;;;3.20;2.40;;;;;;;;;;5021070;28;20242;-61
2021/07/01 04:46:09;;;;;;;2.83;2.60;;;;;;;;;;5021221;28;20596;-61
2021/07/01 04:48:34;;;;;;;4.50;2.47;;;;;;;;;;5027057;28;20226;-60
2021/07/01 04:51:00;;;;;;;9.20;3.10;;;;;;;;;;5027229;28;20226;-61
2021/07/01 04:53:25;;;;;;;4.30;3.27;;;;;;;;;;5022161;28;20237;-61
2021/07/01 04:55:50;;;;;;;4.80;2.70;;;;;;;;;;5019888;28;20230;-61
2021/07/01 04:58:16;;;;;;;3.37;3.07;;;;;;;;;;5027657;28;20242;-60
2021/07/01 05:00:41;;;;;;;3.63;3.33;;;;;;;;;;5027547;28;20328;-61
2021/07/01 05:03:06;;;;;;;4.53;3.70;;;;;;;;;;5022849;28;20327;-61
2021/07/01 05:05:32;;;;;;;2.40;2.20;;;;;;;;;;5025093;28;20222;-61
2021/07/01 05:07:57;;;;;;;4.53;3.27;;;;;;;;;;5035667;28;20220;-61
2021/07/01 05:10:22;;;;;;;4.97;2.53;;;;;;;;;;5037748;28;20282;-60
2021/07/01 05:12:48;;;;;;;10.33;3.43;;;;;;;;;;5024102;28;20233;-61
2021/07/01 05:15:13;;;;;;;12.93;3.60;;;;;;;;;;5025625;28;20640;-60
2021/07/01 05:17:38;;;;;;;4.93;3.40;;;;;;;;;;5011076;28;20233;-60
2021/07/01 05:20:05;;;;;;;3.03;2.30;;;;;;;;;;5024625;28;20723;-61
2021/07/01 05:22:30;;;;;;;5.27;2.40;;;;;;;;;;5036153;28;20564;-60
2021/07/01 05:24:56;;;;;;;4.20;2.60;;;;;;;;;;5025508;28;20464;-61
2021/07/01 05:27:21;;;;;;;5.87;2.27;;;;;;;;;;5031604;28;20305;-61
2021/07/01 05:29:47;;;;;;;5.73;2.83;;;;;;;;;;5029605;28;20241;-61
2021/07/01 05:32:13;;;;;;;2.60;1.83;;;;;;;;;;5024708;28;20316;-61
2021/07/01 05:34:39;;;;;;;2.27;2.07;;;;;;;;;;5031666;28;20578;-61
2021/07/01 05:37:04;;;;;;;2.70;2.50;;;;;;;;;;5030056;28;20469;-60
2021/07/01 05:39:29;;;;;;;2.30;2.00;;;;;;;;;;5029446;28;20553;-60
2021/07/01 05:41:54;;;;;;;2.43;1.90;;;;;;;;;;5024109;28;20241;-60
2021/07/01 05:44:20;;;;;;;2.60;2.20;;;;;;;;;;5026841;28;20790;-62
2021/07/01 05:46:45;;;;;;;2.20;2.00;;;;;;;;;;5030319;28;20243;-61
2021/07/01 05:49:12;;;;;;;6.13;2.20;;;;;;;;;;5027066;28;20550;-61
2021/07/01 05:51:38;;;;;;;2.33;2.17;;;;;;;;;;5031114;28;20240;-61
2021/07/01 05:54:15;;;;;;;2.50;2.10;;;;;;;;;;5027234;28;20547;-61
2021/07/01 05:56:40;;;;;;;2.07;1.87;;;;;;;;;;5023640;28;20464;-61
2021/07/01 05:59:07;;;;;;;7.13;2.70;;;;;;;;;;5024660;28;20767;-62
2021/07/01 06:01:34;;;;;;;3.23;2.93;;;;;;;;;;5030192;28;20230;-61
2021/07/01 06:03:59;;;;;;;3.83;3.53;;;;;;;;;;5029018;28;20464;-62
2021/07/01 06:06:25;;;;;;;13.67;4.27;;;;;;;;;;5023379;28;20475;-61
2021/07/01 06:08:50;;;;;;;5.13;3.70;;;;;;;;;;5023067;28;20361;-63
2021/07/01 06:11:16;;;;;;;5.77;3.90;;;;;;;;;;5028579;28;20695;-61
2021/07/01 06:13:42;;;;;;;4.67;4.13;;;;;;;;;;5028294;28;20218;-61
2021/07/01 06:16:12;;;;;;;4.60;3.17;;;;;;;;;;5010949;28;20641;-61
2021/07/01 06:18:40;;;;;;;3.63;3.33;;;;;;;;;;5024107;28;20476;-61
2021/07/01 06:21:05;;;;;;;3.93;3.53;;;;;;;;;;5022351;28;20488;-62
2021/07/01 06:23:31;;;;;;;5.67;3.87;;;;;;;;;;5034362;28;20483;-61
2021/07/01 06:25:57;;;;;;;6.30;3.33;;;;;;;;;;5016632;28;20230;-61
2021/07/01 06:28:23;;;;;;;3.70;2.80;;;;;;;;;;5029912;28;20224;-61
2021/07/01 06:30:50;;;;;;;4.13;3.63;;;;;;;;;;5022281;28;20464;-62
2021/07/01 06:33:17;;;;;;;3.33;2.90;;;;;;;;;;5022692;28;20226;-61
2021/07/01 06:35:50;;;;;;;2.90;2.40;;;;;;;;;;5034813;28;20465;-62
2021/07/01 06:38:16;;;;;;;3.30;3.00;;;;;;;;;;5022690;28;20778;-62
2021/07/01 06:40:43;;;;;;;4.63;3.67;;;;;;;;;;5028588;28;20535;-61
2021/07/01 06:43:10;;;;;;;5.47;3.57;;;;;;;;;;5028640;28;20468;-61
2021/07/01 06:45:36;;;;;;;4.90;3.77;;;;;;;;;;5029408;28;20468;-62
2021/07/01 06:48:02;;;;;;;3.63;2.90;;;;;;;;;;5033082;28;20478;-62
2021/07/01 06:50:29;;;;;;;3.33;3.03;;;;;;;;;;5024482;28;20259;-61
2021/07/01 06:52:56;;;;;;;3.37;3.07;;;;;;;;;;5021834;28;20538;-62
2021/07/01 06:55:22;;;;;;;3.17;2.43;;;;;;;;;;5027699;28;20504;-62
2021/07/01 06:57:48;;;;;;;4.37;3.73;;;;;;;;;;5029414;28;20479;-61
2021/07/01 07:00:16;;;;;;;5.17;3.53;;;;;;;;;;5024303;28;20895;-61
2021/07/01 07:02:41;;;;;;;4.13;3.30;;;;;;;;;;5022641;28;20469;-62
2021/07/01 07:05:08;;;;;;;6.73;4.00;;;;;;;;;;5027545;28;20545;-61
2021/07/01 07:07:34;;;;;;;6.47;3.93;;;;;;;;;;5029909;28;20222;-61
2021/07/01 07:10:04;;;;;;;5.37;3.40;;;;;;;;;;5024483;28;20468;-61
2021/07/01 07:12:31;;;;;;;5.67;3.00;;;;;;;;;;5022918;28;20462;-62
2021/07/01 07:14:57;;;;;;;4.50;3.60;;;;;;;;;;5027077;28;20517;-62
2021/07/01 07:17:27;;;;;;;6.80;3.80;;;;;;;;;;5005058;28;20599;-61
2021/07/01 07:19:52;;;;;;;5.20;4.10;;;;;;;;;;5025084;28;20583;-61
2021/07/01 07:22:19;;;;;;;3.37;2.90;;;;;;;;;;5030064;28;20801;-61
2021/07/01 07:24:50;;;;;;;3.73;3.27;;;;;;;;;;5029690;28;20465;-60
2021/07/01 07:27:16;;;;;;;5.27;3.37;;;;;;;;;;5020704;28;20452;-61
2021/07/01 07:29:43;;;;;;;4.90;3.77;;;;;;;;;;5024532;28;20496;-61
2021/07/01 07:32:08;;;;;;;8.00;3.83;;;;;;;;;;5027676;28;20840;-61
2021/07/01 07:34:34;;;;;;;4.43;3.30;;;;;;;;;;5027216;28;20463;-62
2021/07/01 07:37:00;;;;;;;6.80;3.00;;;;;;;;;;5030896;28;20218;-61
2021/07/01 07:39:26;;;;;;;5.07;3.20;;;;;;;;;;5026337;28;20233;-61
2021/07/01 07:41:52;;;;;;;5.10;3.40;;;;;;;;;;5021917;28;20222;-62
2021/07/01 07:44:19;;;;;;;6.13;3.37;;;;;;;;;;5024484;28;20453;-62
2021/07/01 07:46:45;;;;;;;6.30;3.00;;;;;;;;;;5031117;28;20469;-61
2021/07/01 07:49:10;;;;;;;3.70;2.70;;;;;;;;;;5026018;28;20844;-62
2021/07/01 07:51:37;;;;;;;6.13;2.50;;;;;;;;;;5021750;28;20547;-61
2021/07/01 07:54:05;;;;;;;2.47;2.27;;;;;;;;;;5006415;28;20225;-63
2021/07/01 07:56:37;;;;;;;2.87;2.57;;;;;;;;;;5027348;28;20531;-61
2021/07/01 07:59:04;;;;;;;2.93;2.10;;;;;;;;;;5026161;28;20487;-62
2021/07/01 08:01:30;;;;;;;4.07;2.50;;;;;;;;;;5021019;28;20530;-61
2021/07/01 08:03:56;;;;;;;2.63;2.43;;;;;;;;;;5022481;28;20489;-63
2021/07/01 08:06:23;;;;;;;2.50;2.30;;;;;;;;;;5029772;28;20608;-61
2021/07/01 08:08:52;;;;;;;3.50;2.90;;;;;;;;;;5026840;28;20221;-62
2021/07/01 08:11:18;;;;;;;5.53;3.00;;;;;;;;;;5021179;28;20468;-63
2021/07/01 08:13:43;;;;;;;4.30;2.80;;;;;;;;;;5022668;28;20476;-63
2021/07/01 08:16:08;;;;;;;4.13;2.47;;;;;;;;;;5018139;28;20226;-61
2021/07/01 08:18:39;;;;;;;2.63;2.43;;;;;;;;;;5021487;28;20255;-63
2021/07/01 08:21:06;;;;;;;2.43;2.23;;;;;;;;;;5027872;28;20229;-61
2021/07/01 08:23:32;;;;;;;2.30;2.10;;;;;;;;;;5029775;28;20960;-62
2021/07/01 08:25:59;;;;;;;5.70;2.50;;;;;;;;;;5033087;28;20472;-62
2021/07/01 08:28:24;;;;;;;2.40;2.20;;;;;;;;;;5020368;28;20464;-63
2021/07/01 08:30:49;;;;;;;3.00;2.23;;;;;;;;;;5027775;28;20479;-63
2021/07/01 08:33:18;;;;;;;2.60;2.37;;;;;;;;;;5026580;28;20672;-63
2021/07/01 08:35:44;;;;;;;2.40;2.20;;;;;;;;;;5032058;28;20281;-63
2021/07/01 08:38:09;;;;;;;2.70;2.27;;;;;;;;;;5024916;28;20863;-62
2021/07/01 08:40:36;;;;;;;2.17;2.03;;;;;;;;;;5030943;28;20229;-62
2021/07/01 08:43:03;;;;;;;2.20;2.00;;;;;;;;;;5031403;28;20239;-62
2021/07/01 08:45:50;;;;;;;3.10;2.37;;;;;;;;;;5033317;28;20468;-62
2021/07/01 08:48:23;;;;;;;2.50;2.30;;;;;;;;;;5023574;28;20473;-62
2021/07/01 08:50:54;;;;;;;2.60;2.40;;;;;;;;;;5028595;28;20541;-62
2021/07/01 08:53:37;;;;;;;2.80;2.50;;;;;;;;;;5031042;28;21415;-62
2021/07/01 08:56:03;;;;;;;3.03;2.33;;;;;;;;;;5030250;28;20463;-63
2021/07/01 08:58:31;;;;;;;2.30;2.10;;;;;;;;;;5024603;28;20529;-63
2021/07/01 09:01:00;;;;;;;2.73;2.53;;;;;;;;;;5023249;28;20469;-62
2021/07/01 09:03:28;;;;;;;3.20;2.30;;;;;;;;;;5025058;28;20495;-62
2021/07/01 09:05:54;;;;;;;2.80;2.60;;;;;;;;;;5024871;28;20476;-63
2021/07/01 09:08:22;;;;;;;3.03;2.73;;;;;;;;;;5037193;28;20953;-63
2021/07/01 09:10:50;;;;;;;2.70;2.50;;;;;;;;;;5036091;28;20552;-63
2021/07/01 09:13:19;;;;;;;2.70;2.50;;;;;;;;;;5017075;28;20557;-63
2021/07/01 09:15:45;;;;;;;2.90;2.70;;;;;;;;;;5024624;28;20537;-63
2021/07/01 09:18:11;;;;;;;2.70;2.50;;;;;;;;;;5017595;28;20508;-62
2021/07/01 09:20:38;;;;;;;2.73;2.50;;;;;;;;;;5030560;28;20479;-63
2021/07/01 09:23:05;;;;;;;3.57;2.90;;;;;;;;;;5035438;28;20214;-63
2021/07/01 09:25:32;;;;;;;3.83;3.00;;;;;;;;;;5023943;28;20457;-63
2021/07/01 09:27:58;;;;;;;3.60;3.17;;;;;;;;;;5027816;28;20472;-62
2021/07/01 09:30:25;;;;;;;4.10;3.63;;;;;;;;;;5030221;28;20936;-64
2021/07/01 09:32:54;;;;;;;3.83;3.43;;;;;;;;;;5027787;28;20550;-63
2021/07/01 09:35:21;;;;;;;3.73;3.43;;;;;;;;;;5023330;28;20945;-63
2021/07/01 09:37:48;;;;;;;4.03;3.73;;;;;;;;;;5026643;28;20461;-62
2021/07/01 09:40:15;;;;;;;4.67;4.27;;;;;;;;;;5029863;28;20469;-62
2021/07/01 09:42:41;;;;;;;4.10;3.70;;;;;;;;;;5027860;28;20891;-63
2021/07/01 09:45:06;;;;;;;4.53;4.13;;;;;;;;;;5023124;28;20461;-62
2021/07/01 09:47:36;;;;;;;4.80;4.40;;;;;;;;;;5025791;28;20226;-63
2021/07/01 09:50:02;;;;;;;4.33;4.00;;;;;;;;;;5030055;28;20246;-63
2021/07/01 09:52:32;;;;;;;4.47;3.97;;;;;;;;;;5017613;28;20585;-62
2021/07/01 09:55:00;;;;;;;4.03;3.73;;;;;;;;;;5029432;28;20460;-63
2021/07/01 09:57:32;;;;;;;5.07;4.67;;;;;;;;;;5017074;28;20448;-63
2021/07/01 09:59:59;;;;;;;5.03;4.57;;;;;;;;;;5029666;28;20493;-62
2021/07/01 10:02:25;;;;;;;5.00;4.60;;;;;;;;;;5027697;28;20491;-63
2021/07/01 10:04:50;;;;;;;4.80;4.40;;;;;;;;;;5031521;28;20818;-63
2021/07/01 10:07:18;;;;;;;5.20;4.70;;;;;;;;;;5027434;28;20233;-63
2021/07/01 10:09:44;;;;;;;4.90;4.50;;;;;;;;;;5022571;28;20224;-63
2021/07/01 10:12:29;;;;;;;6.27;5.77;;;;;;;;;;5023524;28;20526;-62
2021/07/01 10:15:01;;;;;;;7.43;6.33;;;;;;;;;;5011500;28;20946;-62
2021/07/01 10:17:27;;;;;;;5.67;5.17;;;;;;;;;;5009166;28;20536;-62
2021/07/01 10:20:30;;;;;;;5.63;5.17;;;;;;;;;;5028010;28;20460;-62
2021/07/01 10:22:56;;;;;;;6.60;6.03;;;;;;;;;;5011905;28;20859;-63
2021/07/01 10:25:31;;;;;;;6.43;5.90;;;;;;;;;;5021527;28;20466;-62
2021/07/01 10:28:08;;;;;;;6.90;6.40;;;;;;;;;;5025408;28;20545;-62
2021/07/01 10:30:34;;;;;;;6.53;5.93;;;;;;;;;;5029601;28;20560;-62
2021/07/01 10:32:59;;;;;;;7.73;5.73;;;;;;;;;;5027207;28;20992;-63
2021/07/01 10:35:31;;;;;;;6.23;5.63;;;;;;;;;;5021409;28;20253;-63
2021/07/01 10:38:07;;;;;;;6.20;5.70;;;;;;;;;;5022505;28;20665;-62
2021/07/01 10:40:38;;;;;;;6.40;5.90;;;;;;;;;;5010288;28;20766;-63
2021/07/01 10:43:04;;;;;;;5.67;4.90;;;;;;;;;;5021903;28;20466;-63
2021/07/01 10:45:29;;;;;;;6.13;5.50;;;;;;;;;;5028021;28;20492;-62
2021/07/01 10:48:13;;;;;;;6.23;5.63;;;;;;;;;;5028603;28;20465;-63
2021/07/01 10:50:38;;;;;;;5.87;5.37;;;;;;;;;;5026180;28;20224;-62
2021/07/01 10:53:26;;;;;;;6.27;5.67;;;;;;;;;;5021274;28;20469;-62
2021/07/01 10:55:53;;;;;;;5.13;4.73;;;;;;;;;;5022301;28;20579;-62
2021/07/01 10:58:18;;;;;;;7.10;5.50;;;;;;;;;;5027459;28;20597;-62
2021/07/01 11:00:45;;;;;;;7.70;5.93;;;;;;;;;;5028335;28;20559;-63
2021/07/01 11:03:18;;;;;;;7.03;6.40;;;;;;;;;;5021477;28;20271;-62
2021/07/01 11:05:44;;;;;;;5.77;5.27;;;;;;;;;;5022067;28;20940;-63
2021/07/01 11:08:24;;;;;;;6.63;6.03;;;;;;;;;;5027498;28;20462;-63
2021/07/01 11:10:51;;;;;;;6.37;5.80;;;;;;;;;;5028100;28;20228;-63
2021/07/01 11:13:17;;;;;;;7.60;6.23;;;;;;;;;;5024420;28;20479;-63
2021/07/01 11:16:07;;;;;;;6.17;5.30;;;;;;;;;;5014391;28;20922;-63
2021/07/01 11:18:52;;;;;;;7.07;6.53;;;;;;;;;;5021099;28;20294;-60
2021/07/01 11:21:20;;;;;;;6.17;5.67;;;;;;;;;;5031551;28;20498;-60
2021/07/01 11:23:47;;;;;;;6.73;6.10;;;;;;;;;;5030509;28;20466;-60
2021/07/01 11:26:23;;;;;;;6.90;6.30;;;;;;;;;;5024432;28;20790;-60
2021/07/01 11:28:50;;;;;;;6.83;5.77;;;;;;;;;;5020964;28;20531;-61
2021/07/01 11:31:15;;;;;;;6.43;5.90;;;;;;;;;;5023583;28;20480;-61
2021/07/01 11:33:47;;;;;;;6.20;5.60;;;;;;;;;;5027486;28;20469;-60
2021/07/01 11:36:14;;;;;;;6.63;6.07;;;;;;;;;;5026746;28;20232;-60
2021/07/01 11:38:40;;;;;;;7.30;6.70;;;;;;;;;;5023673;28;20479;-60
2021/07/01 11:41:06;;;;;;;6.73;6.10;;;;;;;;;;5021184;28;20457;-61
2021/07/01 11:43:33;;;;;;;8.20;7.40;;;;;;;;;;5027431;28;20472;-62
2021/07/01 11:45:58;;;;;;;9.10;8.40;;;;;;;;;;5026714;28;20213;-60
2021/07/01 11:48:26;;;;;;;8.60;7.73;;;;;;;;;;5020697;28;20463;-61
2021/07/01 11:50:53;;;;;;;7.40;6.70;;;;;;;;;;5021899;28;20667;-61
2021/07/01 11:53:20;;;;;;;7.67;7.00;;;;;;;;;;5027607;28;20474;-61
2021/07/01 11:55:47;;;;;;;7.60;6.70;;;;;;;;;;5026043;28;20476;-60
2021/07/01 11:58:13;;;;;;;7.40;6.80;;;;;;;;;;5020580;28;20464;-60
2021/07/01 12:00:39;;;;;;;8.50;7.80;;;;;;;;;;5021291;28;20465;-60
2021/07/01 12:03:05;;;;;;;8.63;7.30;;;;;;;;;;5026327;28;20941;-62
2021/07/01 12:05:31;;;;;;;9.10;8.30;;;;;;;;;;5026475;28;20467;-61
2021/07/01 12:07:57;;;;;;;9.03;8.20;;;;;;;;;;5019986;28;20267;-61
2021/07/01 12:10:23;;;;;;;9.87;8.87;;;;;;;;;;5021918;28;20462;-62
2021/07/01 12:12:49;;;;;;;9.67;8.77;;;;;;;;;;5025660;28;20229;-61
2021/07/01 12:15:15;;;;;;;11.50;9.90;;;;;;;;;;5017549;28;20222;-61
2021/07/01 12:17:58;;;;;;;12.50;11.20;;;;;;;;;;5006535;28;20474;-62
2021/07/01 12:20:38;;;;;;;10.00;9.10;;;;;;;;;;5020068;28;20234;-61
2021/07/01 12:23:21;;;;;;;11.10;10.17;;;;;;;;;;5032574;28;20550;-61
2021/07/01 12:25:57;;;;;;;10.97;9.97;;;;;;;;;;5020158;28;20460;-61
2021/07/01 12:28:25;;;;;;;12.60;11.30;;;;;;;;;;5020549;28;20492;-61
2021/07/01 12:31:04;;;;;;;11.70;10.60;;;;;;;;;;5024939;28;20771;-61
2021/07/01 12:33:34;;;;;;;12.53;11.43;;;;;;;;;;5027140;28;20762;-61
2021/07/01 12:36:21;;;;;;;12.03;10.83;;;;;;;;;;5023812;28;20452;-61
2021/07/01 12:39:05;;;;;;;11.07;9.97;;;;;;;;;;5015320;28;20479;-61
2021/07/01 12:41:32;;;;;;;12.93;11.83;;;;;;;;;;5020009;28;20457;-60
2021/07/01 12:44:02;;;;;;;11.67;10.57;;;;;;;;;;5024199;28;20530;-61
2021/07/01 12:46:45;;;;;;;11.70;10.67;;;;;;;;;;5026854;28;20952;-61
2021/07/01 12:49:25;;;;;;;11.13;10.03;;;;;;;;;;5025673;28;20464;-61
2021/07/01 12:51:53;;;;;;;9.97;9.07;;;;;;;;;;5008560;28;20458;-62
2021/07/01 12:54:24;;;;;;;10.97;9.97;;;;;;;;;;5019949;28;20457;-62
2021/07/01 12:56:55;;;;;;;9.50;8.67;;;;;;;;;;5024787;28;20465;-61
2021/07/01 12:59:24;;;;;;;8.67;7.97;;;;;;;;;;5026855;28;20972;-60
2021/07/01 13:01:50;;;;;;;9.37;8.57;;;;;;;;;;5017857;28;20466;-60
2021/07/01 13:04:21;;;;;;;9.50;8.60;;;;;;;;;;5014123;28;20798;-60
2021/07/01 13:06:46;;;;;;;9.93;9.03;;;;;;;;;;5013293;28;20226;-60
2021/07/01 13:09:29;;;;;;;8.83;7.93;;;;;;;;;;5012162;28;21797;-59
2021/07/01 13:11:55;;;;;;;9.60;8.70;;;;;;;;;;5012822;28;20233;-60
2021/07/01 13:14:28;;;;;;;12.73;8.20;;;;;;;;;;5018574;28;20472;-60
2021/07/01 13:17:16;;;;;;;9.10;8.30;;;;;;;;;;5002494;28;20276;-59
2021/07/01 13:19:46;;;;;;;8.80;8.10;;;;;;;;;;5012447;28;20479;-60
2021/07/01 13:22:22;;;;;;;8.47;7.70;;;;;;;;;;5031718;28;20477;-59
2021/07/01 13:25:05;;;;;;;10.37;9.47;;;;;;;;;;5025173;28;20522;-59
2021/07/01 13:27:49;;;;;;;9.03;8.23;;;;;;;;;;5023671;28;21025;-59
2021/07/01 13:30:16;;;;;;;9.67;8.77;;;;;;;;;;5022498;28;20461;-58
2021/07/01 13:32:43;;;;;;;9.50;8.60;;;;;;;;;;5027113;28;20453;-59
2021/07/01 13:35:10;;;;;;;9.70;9.00;;;;;;;;;;5032970;28;20468;-59
2021/07/01 13:37:36;;;;;;;9.03;8.07;;;;;;;;;;5026462;28;20936;-59
2021/07/01 13:40:19;;;;;;;9.70;8.90;;;;;;;;;;5019935;28;20472;-59
2021/07/01 13:42:46;;;;;;;9.00;8.10;;;;;;;;;;5023910;28;20994;-59
2021/07/01 13:45:23;;;;;;;8.60;7.90;;;;;;;;;;5029974;28;20473;-57
2021/07/01 13:48:06;;;;;;;9.40;8.60;;;;;;;;;;5029568;28;20965;-59
2021/07/01 13:50:38;;;;;;;9.37;8.57;;;;;;;;;;5025656;28;20806;-59
2021/07/01 13:53:05;;;;;;;9.50;8.70;;;;;;;;;;5019495;28;20465;-59
2021/07/01 13:55:34;;;;;;;9.53;8.60;;;;;;;;;;5026698;28;20854;-59
2021/07/01 13:57:59;;;;;;;9.57;8.77;;;;;;;;;;5022894;28;20479;-58
2021/07/01 14:00:27;;;;;;;9.90;9.00;;;;;;;;;;5025406;28;20474;-58
2021/07/01 14:03:01;;;;;;;9.03;8.33;;;;;;;;;;5028980;28;20303;-58
2021/07/01 14:05:31;;;;;;;8.37;7.77;;;;;;;;;;5028056;28;20842;-58
2021/07/01 14:07:58;;;;;;;8.37;7.67;;;;;;;;;;5022404;28;20452;-59
2021/07/01 14:10:27;;;;;;;9.00;8.30;;;;;;;;;;5023469;28;20814;-58
2021/07/01 14:12:52;;;;;;;9.23;8.53;;;;;;;;;;5029173;28;20754;-58
2021/07/01 14:15:18;;;;;;;8.33;7.73;;;;;;;;;;5028125;28;20495;-58
2021/07/01 14:17:43;;;;;;;10.00;9.10;;;;;;;;;;5008239;28;20317;-59
2021/07/01 14:20:09;;;;;;;8.97;8.27;;;;;;;;;;5027798;28;20234;-59
2021/07/01 14:22:36;;;;;;;9.07;8.23;;;;;;;;;;5034395;28;20461;-59
2021/07/01 14:25:15;;;;;;;8.80;8.10;;;;;;;;;;5022306;28;20309;-58
2021/07/01 14:27:41;;;;;;;15.30;14.00;;;;;;;;;;5027094;28;20465;-59
2021/07/01 14:30:06;;;;;;;16.17;14.70;;;;;;;;;;5029075;28;20460;-58
2021/07/01 14:32:33;;;;;;;20.80;18.80;;;;;;;;;;5023369;28;20244;-58
2021/07/01 14:34:58;;;;;;;16.50;14.97;;;;;;;;;;5021214;28;20245;-59
2021/07/01 14:37:23;;;;;;;19.57;17.53;;;;;;;;;;5027021;28;20497;-59
2021/07/01 14:40:04;;;;;;;16.10;14.40;;;;;;;;;;5028274;28;20321;-58
2021/07/01 14:42:32;;;;;;;23.23;21.03;;;;;;;;;;5025790;28;20232;-58